createdAt,value
2022-07-29T00:01:19.024Z,100997.59
2022-07-29T00:03:47.247Z,100996.38
2022-07-29T00:06:15.327Z,101003.16
2022-07-29T00:08:42.531Z,100996.38
2022-07-29T00:11:10.013Z,100999.56
2022-07-29T00:13:37.810Z,100994.81
2022-07-29T00:16:05.762Z,100996.38
2022-07-29T00:18:33.326Z,100991.22
2022-07-29T00:21:00.782Z,100986.03
2022-07-29T00:23:27.954Z,100988.00
2022-07-29T00:25:55.143Z,100986.03
2022-07-29T00:28:22.172Z,100989.19
2022-07-29T00:30:49.363Z,100988.00
2022-07-29T00:33:16.462Z,100990.00
2022-07-29T00:35:46.414Z,100988.81
2022-07-29T00:38:18.189Z,100982.44
2022-07-29T00:40:46.247Z,100975.69
2022-07-29T00:43:15.510Z,100973.69
2022-07-29T00:45:43.665Z,100975.69
2022-07-29T00:48:11.707Z,100978.47
2022-07-29T00:50:39.927Z,100978.84
2022-07-29T00:53:08.687Z,100982.03
2022-07-29T00:55:36.694Z,100983.66
2022-07-29T00:58:03.958Z,100983.25
2022-07-29T01:00:32.041Z,100975.28
2022-07-29T01:02:59.427Z,100982.84
2022-07-29T01:05:48.490Z,100980.91
2022-07-29T01:08:17.677Z,100966.94
2022-07-29T01:10:45.683Z,100959.78
2022-07-29T01:13:14.611Z,100970.94
2022-07-29T01:15:49.701Z,100963.00
2022-07-29T01:18:29.691Z,100962.97
2022-07-29T01:21:03.764Z,100965.75
2022-07-29T01:23:50.167Z,100971.34
2022-07-29T01:26:33.053Z,100969.78
2022-07-29T01:29:07.627Z,100976.53
2022-07-29T01:31:40.348Z,100972.94
2022-07-29T01:34:32.347Z,100973.31
2022-07-29T01:37:21.347Z,100972.91
2022-07-29T01:39:51.386Z,100981.28
2022-07-29T01:42:39.955Z,100975.28
2022-07-29T01:45:21.321Z,100970.94
2022-07-29T01:48:06.001Z,100979.66
2022-07-29T01:50:39.638Z,100965.75
2022-07-29T01:53:10.576Z,100970.94
2022-07-29T01:55:45.623Z,100961.38
2022-07-29T01:58:15.519Z,100955.00
2022-07-29T02:00:45.813Z,100964.53
2022-07-29T02:03:14.317Z,100947.03
2022-07-29T02:05:43.923Z,100958.97
2022-07-29T02:08:12.587Z,100952.97
2022-07-29T02:10:42.003Z,100951.81
2022-07-29T02:13:12.656Z,100953.38
2022-07-29T02:15:42.949Z,100957.34
2022-07-29T02:18:15.650Z,100957.34
2022-07-29T02:20:45.701Z,100964.88
2022-07-29T02:23:15.356Z,100950.59
2022-07-29T02:25:44.123Z,100952.97
2022-07-29T02:28:14.814Z,100950.97
2022-07-29T02:30:44.826Z,100957.31
2022-07-29T02:33:16.917Z,100959.72
2022-07-29T02:35:48.458Z,100955.72
2022-07-29T02:38:38.087Z,100958.09
2022-07-29T02:41:12.518Z,100962.09
2022-07-29T02:43:41.813Z,100956.94
2022-07-29T02:46:28.472Z,100965.28
2022-07-29T02:49:20.937Z,100958.50
2022-07-29T02:51:56.354Z,100960.50
2022-07-29T02:54:45.710Z,100950.56
2022-07-29T02:57:30.374Z,100948.56
2022-07-29T03:00:01.802Z,100946.56
2022-07-29T03:02:31.984Z,100949.69
2022-07-29T03:05:01.002Z,100944.91
2022-07-29T03:07:29.135Z,100947.31
2022-07-29T03:09:57.208Z,100954.06
2022-07-29T03:12:25.439Z,100956.47
2022-07-29T03:14:53.554Z,100957.25
2022-07-29T03:17:22.346Z,100948.91
2022-07-29T03:19:49.927Z,100940.97
2022-07-29T03:22:17.351Z,100946.53
2022-07-29T03:24:46.366Z,100949.69
2022-07-29T03:27:14.720Z,100945.72
2022-07-29T03:29:41.800Z,100946.13
2022-07-29T03:32:17.170Z,100950.13
2022-07-29T03:34:51.183Z,100945.78
2022-07-29T03:37:18.359Z,100950.91
2022-07-29T03:39:48.661Z,100952.91
2022-07-29T03:42:17.624Z,100948.50
2022-07-29T03:44:48.873Z,100946.91
2022-07-29T03:47:20.288Z,100946.53
2022-07-29T03:49:51.739Z,100957.25
2022-07-29T03:52:19.443Z,100959.63
2022-07-29T03:54:46.749Z,100959.63
2022-07-29T03:57:16.493Z,100958.03
2022-07-29T03:59:44.758Z,100961.22
2022-07-29T04:02:14.912Z,100962.81
2022-07-29T04:04:44.889Z,100966.75
2022-07-29T04:07:16.411Z,100969.94
2022-07-29T04:09:43.670Z,100969.50
2022-07-29T04:12:11.148Z,100968.72
2022-07-29T04:14:38.309Z,100967.16
2022-07-29T04:17:06.391Z,100970.75
2022-07-29T04:19:33.959Z,100969.59
2022-07-29T04:22:01.665Z,100981.91
2022-07-29T04:24:29.456Z,100986.69
2022-07-29T04:26:56.757Z,100985.09
2022-07-29T04:29:23.843Z,100980.75
2022-07-29T04:31:51.071Z,100982.00
2022-07-29T04:34:18.947Z,100982.00
2022-07-29T04:36:46.691Z,100983.22
2022-07-29T04:39:17.030Z,100990.00
2022-07-29T04:41:46.454Z,100990.38
2022-07-29T04:44:13.719Z,100990.44
2022-07-29T04:46:42.487Z,100999.56
2022-07-29T04:49:09.986Z,100998.38
2022-07-29T04:51:37.207Z,100998.00
2022-07-29T04:54:04.507Z,101004.81
2022-07-29T04:56:31.619Z,101014.34
2022-07-29T04:58:58.746Z,101016.34
2022-07-29T05:01:25.916Z,101011.16
2022-07-29T05:03:57.003Z,101017.13
2022-07-29T05:06:27.185Z,101019.47
2022-07-29T05:08:54.384Z,101017.44
2022-07-29T05:11:24.980Z,101023.41
2022-07-29T05:13:54.499Z,101022.94
2022-07-29T05:16:22.510Z,101017.31
2022-07-29T05:18:49.916Z,101031.91
2022-07-29T05:21:16.995Z,101029.34
2022-07-29T05:23:44.231Z,101029.38
2022-07-29T05:26:11.592Z,101034.97
2022-07-29T05:28:39.051Z,101031.78
2022-07-29T05:31:06.239Z,101040.53
2022-07-29T05:33:34.646Z,101039.94
2022-07-29T05:36:08.476Z,101039.56
2022-07-29T05:38:37.299Z,101039.63
2022-07-29T05:41:05.464Z,101043.44
2022-07-29T05:43:33.012Z,101038.44
2022-07-29T05:46:00.403Z,101048.13
2022-07-29T05:48:28.377Z,101041.22
2022-07-29T05:50:55.946Z,101047.00
2022-07-29T05:53:23.708Z,101042.50
2022-07-29T05:55:51.996Z,101044.09
2022-07-29T05:58:22.227Z,101055.97
2022-07-29T06:00:49.543Z,101057.47
2022-07-29T06:03:17.297Z,101049.25
2022-07-29T06:05:44.589Z,101052.06
2022-07-29T06:08:11.832Z,101057.56
2022-07-29T06:10:39.515Z,101060.13
2022-07-29T06:13:06.745Z,101059.81
2022-07-29T06:15:34.544Z,101061.38
2022-07-29T06:18:02.093Z,101062.66
2022-07-29T06:20:33.573Z,101072.56
2022-07-29T06:23:01.279Z,101065.09
2022-07-29T06:25:33.560Z,101078.94
2022-07-29T06:28:00.834Z,101073.78
2022-07-29T06:30:30.071Z,101071.16
2022-07-29T06:32:57.541Z,101073.34
2022-07-29T06:35:38.330Z,101076.69
2022-07-29T06:38:29.940Z,101077.38
2022-07-29T06:41:07.224Z,101075.38
2022-07-29T06:43:50.782Z,101077.84
2022-07-29T06:46:21.284Z,101085.44
2022-07-29T06:48:49.180Z,101083.78
2022-07-29T06:51:22.927Z,101084.22
2022-07-29T06:53:59.312Z,101086.84
2022-07-29T06:56:39.434Z,101087.16
2022-07-29T06:59:11.728Z,101095.44
2022-07-29T07:01:41.289Z,101101.91
2022-07-29T07:04:12.146Z,101104.66
2022-07-29T07:06:39.472Z,101110.75
2022-07-29T07:09:06.831Z,101107.88
2022-07-29T07:11:34.607Z,101107.69
2022-07-29T07:14:04.261Z,101114.78
2022-07-29T07:16:32.945Z,101113.13
2022-07-29T07:19:00.588Z,101113.38
2022-07-29T07:21:30.201Z,101123.41
2022-07-29T07:23:57.972Z,101117.94
2022-07-29T07:26:25.254Z,101111.81
2022-07-29T07:28:52.395Z,101119.47
2022-07-29T07:31:19.617Z,101127.09
2022-07-29T07:33:46.937Z,101123.94
2022-07-29T07:36:14.073Z,101120.06
2022-07-29T07:38:41.330Z,101126.81
2022-07-29T07:41:08.610Z,101126.94
2022-07-29T07:43:35.986Z,101124.53
2022-07-29T07:46:04.276Z,101124.34
2022-07-29T07:48:31.690Z,101123.69
2022-07-29T07:50:58.870Z,101124.03
2022-07-29T07:53:26.132Z,101122.56
2022-07-29T07:56:09.974Z,101121.59
2022-07-29T07:58:38.622Z,101129.47
2022-07-29T08:01:05.912Z,101128.78
2022-07-29T08:03:34.326Z,101126.53
2022-07-29T08:06:01.548Z,101134.31
2022-07-29T08:08:28.799Z,101134.13
2022-07-29T08:11:02.210Z,101133.06
2022-07-29T08:13:33.337Z,101144.88
2022-07-29T08:16:02.805Z,101149.16
2022-07-29T08:18:31.974Z,101137.88
2022-07-29T08:20:59.866Z,101137.03
2022-07-29T08:23:52.770Z,101142.16
2022-07-29T08:26:25.198Z,101143.50
2022-07-29T08:28:52.391Z,101145.13
2022-07-29T08:31:19.661Z,101145.28
2022-07-29T08:33:46.825Z,101140.19
2022-07-29T08:36:14.414Z,101137.19
2022-07-29T08:38:41.620Z,101145.66
2022-07-29T08:41:08.885Z,101142.41
2022-07-29T08:43:38.676Z,101141.38
2022-07-29T08:46:05.955Z,101143.88
2022-07-29T08:48:34.599Z,101137.94
2022-07-29T08:51:02.904Z,101133.78
2022-07-29T08:53:32.769Z,101136.88
2022-07-29T08:56:01.680Z,101139.13
2022-07-29T08:58:36.585Z,101136.38
2022-07-29T09:01:05.084Z,101146.50
2022-07-29T09:03:38.159Z,101133.97
2022-07-29T09:06:06.034Z,101140.22
2022-07-29T09:08:34.277Z,101135.03
2022-07-29T09:11:05.740Z,101136.78
2022-07-29T09:13:33.083Z,101135.41
2022-07-29T09:16:02.502Z,101134.06
2022-07-29T09:18:43.129Z,101132.44
2022-07-29T09:21:34.052Z,101143.72
2022-07-29T09:24:10.293Z,101133.34
2022-07-29T09:26:40.685Z,101130.31
2022-07-29T09:29:12.454Z,101131.91
2022-07-29T09:31:42.878Z,101147.13
2022-07-29T09:34:13.313Z,101137.91
2022-07-29T09:36:41.553Z,101137.41
2022-07-29T09:39:09.069Z,101139.91
2022-07-29T09:41:57.075Z,101136.25
2022-07-29T09:44:26.275Z,101137.47
2022-07-29T09:47:11.873Z,101131.75
2022-07-29T09:50:11.944Z,101132.66
2022-07-29T09:52:53.517Z,101134.34
2022-07-29T09:55:20.895Z,101137.44
2022-07-29T09:57:48.457Z,101139.91
2022-07-29T10:00:21.035Z,101133.28
2022-07-29T10:02:48.341Z,101130.97
2022-07-29T10:05:25.800Z,101131.63
2022-07-29T10:07:57.387Z,101132.06
2022-07-29T10:10:41.456Z,101127.00
2022-07-29T10:13:15.374Z,101121.09
2022-07-29T10:15:46.355Z,101127.44
2022-07-29T10:18:15.513Z,101122.06
2022-07-29T10:20:42.783Z,101120.06
2022-07-29T10:23:10.921Z,101122.00
2022-07-29T10:25:38.139Z,101109.16
2022-07-29T10:28:06.944Z,101107.66
2022-07-29T10:30:34.379Z,101112.91
2022-07-29T10:33:15.941Z,101106.09
2022-07-29T10:36:13.250Z,101104.94
2022-07-29T10:39:06.410Z,101099.91
2022-07-29T10:41:53.024Z,101098.25
2022-07-29T10:44:22.881Z,101089.19
2022-07-29T10:46:52.396Z,101087.59
2022-07-29T10:49:25.056Z,101088.16
2022-07-29T10:51:59.433Z,101092.47
2022-07-29T10:54:46.256Z,101094.00
2022-07-29T10:57:21.641Z,101096.59
2022-07-29T11:00:16.743Z,101094.72
2022-07-29T11:02:46.999Z,101091.91
2022-07-29T11:05:20.310Z,101093.69
2022-07-29T11:08:21.505Z,101090.81
2022-07-29T11:11:15.884Z,101087.09
2022-07-29T11:13:44.646Z,101085.91
2022-07-29T11:16:15.981Z,101092.41
2022-07-29T11:19:14.733Z,101092.06
2022-07-29T11:24:34.985Z,101081.75
2022-07-29T11:27:09.629Z,101083.25
2022-07-29T11:29:50.975Z,101078.50
2022-07-29T11:32:22.523Z,101072.16
2022-07-29T11:35:17.574Z,101077.34
2022-07-29T11:38:08.672Z,101081.00
2022-07-29T11:40:38.864Z,101074.81
2022-07-29T11:43:09.866Z,101069.13
2022-07-29T11:45:48.464Z,101070.66
2022-07-29T11:48:29.147Z,101074.69
2022-07-29T11:51:00.027Z,101068.47
2022-07-29T11:53:29.002Z,101065.19
2022-07-29T11:56:00.693Z,101061.38
2022-07-29T11:58:29.629Z,101059.41
2022-07-29T12:00:58.087Z,101055.91
2022-07-29T12:03:35.455Z,101065.34
2022-07-29T12:06:18.358Z,101063.59
2022-07-29T12:08:46.061Z,101065.56
2022-07-29T12:11:23.242Z,101059.09
2022-07-29T12:13:52.660Z,101049.16
2022-07-29T12:16:25.037Z,101046.47
2022-07-29T12:18:59.638Z,101051.28
2022-07-29T12:21:28.917Z,101046.31
2022-07-29T12:24:04.787Z,101048.53
2022-07-29T12:26:35.986Z,101048.72
2022-07-29T12:29:04.279Z,101042.66
2022-07-29T12:31:42.976Z,101047.03
2022-07-29T12:34:15.135Z,101045.91
2022-07-29T12:36:44.021Z,101039.47
2022-07-29T12:39:12.541Z,101038.03
2022-07-29T12:41:40.242Z,101036.63
2022-07-29T12:44:07.617Z,101036.47
2022-07-29T12:46:34.859Z,101039.88
2022-07-29T12:49:04.123Z,101036.41
2022-07-29T12:51:40.140Z,101034.41
2022-07-29T12:54:15.080Z,101046.84
2022-07-29T12:56:45.286Z,101028.25
2022-07-29T12:59:18.803Z,101040.25
2022-07-29T13:01:49.577Z,101031.66
2022-07-29T13:04:33.595Z,101033.50
2022-07-29T13:07:04.904Z,101026.91
2022-07-29T13:09:49.733Z,101034.16
2022-07-29T13:12:17.088Z,101032.47
2022-07-29T13:14:49.059Z,101036.50
2022-07-29T13:17:32.707Z,101040.19
2022-07-29T13:20:10.467Z,101033.59
2022-07-29T13:22:37.740Z,101028.06
2022-07-29T13:25:05.418Z,101031.31
2022-07-29T13:27:37.571Z,101031.31
2022-07-29T13:30:10.067Z,101024.06
2022-07-29T13:32:40.587Z,101035.97
2022-07-29T13:35:09.364Z,101034.19
2022-07-29T13:37:39.565Z,101034.06
2022-07-29T13:40:11.435Z,101027.56
2022-07-29T13:42:39.343Z,101033.53
2022-07-29T13:45:07.885Z,101040.94
2022-07-29T13:47:35.261Z,101039.25
2022-07-29T13:50:03.208Z,101041.38
2022-07-29T13:52:32.848Z,101038.09
2022-07-29T13:55:00.229Z,101032.69
2022-07-29T13:57:27.625Z,101038.72
2022-07-29T13:59:54.955Z,101038.44
2022-07-29T14:02:25.947Z,101036.88
2022-07-29T14:04:55.042Z,101031.47
2022-07-29T14:07:23.267Z,101027.44
2022-07-29T14:09:51.309Z,101027.88
2022-07-29T14:12:18.909Z,101032.47
2022-07-29T14:14:47.190Z,101041.06
2022-07-29T14:17:15.336Z,101035.97
2022-07-29T14:19:44.164Z,101031.97
2022-07-29T14:22:11.393Z,101031.50
2022-07-29T14:24:39.083Z,101033.41
2022-07-29T14:27:07.760Z,101031.38
2022-07-29T14:29:38.782Z,101028.97
2022-07-29T14:32:18.444Z,101035.09
2022-07-29T14:34:45.723Z,101029.53
2022-07-29T14:37:15.806Z,101025.19
2022-07-29T14:39:43.586Z,101020.16
2022-07-29T14:42:12.745Z,101019.75
2022-07-29T14:44:41.358Z,101020.06
2022-07-29T14:47:08.839Z,101017.63
2022-07-29T14:49:36.435Z,101026.22
2022-07-29T14:52:05.398Z,101023.47
2022-07-29T14:54:32.459Z,101017.06
2022-07-29T14:56:59.709Z,101017.00
2022-07-29T14:59:27.482Z,101019.03
2022-07-29T15:01:55.011Z,101018.63
2022-07-29T15:04:22.371Z,101018.56
2022-07-29T15:06:51.776Z,101016.50
2022-07-29T15:09:19.220Z,101021.63
2022-07-29T15:11:46.306Z,101020.50
2022-07-29T15:14:13.562Z,101030.47
2022-07-29T15:16:48.022Z,101035.53
2022-07-29T15:19:15.717Z,101036.06
2022-07-29T15:21:48.018Z,101035.38
2022-07-29T15:24:18.104Z,101034.16
2022-07-29T15:26:45.379Z,101020.19
2022-07-29T15:29:12.626Z,101024.22
2022-07-29T15:31:39.725Z,101023.44
2022-07-29T15:34:08.409Z,101019.44
2022-07-29T15:36:51.529Z,101019.41
2022-07-29T15:39:20.994Z,101023.44
2022-07-29T15:41:48.400Z,101017.16
2022-07-29T15:44:15.467Z,101016.88
2022-07-29T15:47:01.911Z,101018.88
2022-07-29T15:49:48.027Z,101012.53
2022-07-29T15:52:25.007Z,101020.53
2022-07-29T15:54:54.958Z,101007.38
2022-07-29T15:57:23.099Z,101009.03
2022-07-29T15:59:50.699Z,101007.44
2022-07-29T16:02:17.997Z,101011.84
2022-07-29T16:04:45.073Z,101004.31
2022-07-29T16:07:12.622Z,101008.78
2022-07-29T16:09:42.537Z,101016.75
2022-07-29T16:12:14.873Z,101006.00
2022-07-29T16:14:42.991Z,101003.56
2022-07-29T16:17:10.322Z,101000.38
2022-07-29T16:19:43.739Z,100999.53
2022-07-29T16:22:11.310Z,100996.31
2022-07-29T16:24:39.142Z,100999.50
2022-07-29T16:27:08.010Z,100999.03
2022-07-29T16:29:37.239Z,100995.47
2022-07-29T16:32:06.015Z,101002.38
2022-07-29T16:34:33.296Z,101004.38
2022-07-29T16:37:00.936Z,101002.88
2022-07-29T16:39:28.396Z,101000.09
2022-07-29T16:41:59.888Z,101005.69
2022-07-29T16:44:27.941Z,101005.28
2022-07-29T16:46:58.920Z,101006.88
2022-07-29T16:49:27.750Z,101005.72
2022-07-29T16:51:55.047Z,101004.09
2022-07-29T16:54:22.314Z,101008.50
2022-07-29T16:56:49.872Z,101004.91
2022-07-29T16:59:20.221Z,101008.53
2022-07-29T17:01:47.993Z,101016.94
2022-07-29T17:04:15.329Z,101007.31
2022-07-29T17:06:42.761Z,101012.09
2022-07-29T17:09:11.769Z,101016.50
2022-07-29T17:11:51.588Z,101012.53
2022-07-29T17:14:31.160Z,101011.75
2022-07-29T17:17:01.798Z,101022.56
2022-07-29T17:19:31.738Z,101016.16
2022-07-29T17:22:08.480Z,101026.56
2022-07-29T17:24:40.268Z,101025.72
2022-07-29T17:27:09.614Z,101024.16
2022-07-29T17:29:37.091Z,101019.34
2022-07-29T17:32:07.567Z,101023.00
2022-07-29T17:34:37.603Z,101029.84
2022-07-29T17:37:09.807Z,101021.06
2022-07-29T17:39:40.097Z,101034.25
2022-07-29T17:42:09.697Z,101038.63
2022-07-29T17:44:40.264Z,101031.06
2022-07-29T17:47:16.289Z,101032.72
2022-07-29T17:49:45.520Z,101030.34
2022-07-29T17:52:12.749Z,101034.41
2022-07-29T17:54:39.913Z,101034.06
2022-07-29T17:57:07.099Z,101034.91
2022-07-29T17:59:34.299Z,101032.91
2022-07-29T18:02:01.458Z,101037.72
2022-07-29T18:04:29.335Z,101036.53
2022-07-29T18:06:56.834Z,101038.13
2022-07-29T18:09:24.158Z,101039.72
2022-07-29T18:11:51.929Z,101031.78
2022-07-29T18:14:19.422Z,101037.44
2022-07-29T18:16:46.755Z,101033.47
2022-07-29T18:19:14.038Z,101040.22
2022-07-29T18:21:51.317Z,101039.88
2022-07-29T18:24:27.668Z,101040.69
2022-07-29T18:26:54.982Z,101038.69
2022-07-29T18:29:22.288Z,101046.69
2022-07-29T18:31:49.686Z,101045.53
2022-07-29T18:34:17.276Z,101038.75
2022-07-29T18:36:45.901Z,101048.72
2022-07-29T18:39:20.007Z,101044.75
2022-07-29T18:41:51.271Z,101047.53
2022-07-29T18:44:22.833Z,101048.75
2022-07-29T18:46:51.770Z,101054.72
2022-07-29T18:49:19.639Z,101057.53
2022-07-29T18:51:47.194Z,101057.53
2022-07-29T18:54:15.313Z,101056.75
2022-07-29T18:56:42.452Z,101061.16
2022-07-29T18:59:09.711Z,101058.78
2022-07-29T19:01:38.131Z,101065.97
2022-07-29T19:04:07.700Z,101065.97
2022-07-29T19:06:35.351Z,101063.97
2022-07-29T19:09:02.585Z,101063.59
2022-07-29T19:11:29.732Z,101070.78
2022-07-29T19:13:56.910Z,101075.59
2022-07-29T19:16:24.115Z,101080.72
2022-07-29T19:18:51.700Z,101081.53
2022-07-29T19:21:19.573Z,101081.53
2022-07-29T19:24:02.473Z,101091.94
2022-07-29T19:26:36.660Z,101096.72
2022-07-29T19:29:04.191Z,101099.09
2022-07-29T19:31:31.351Z,101101.53
2022-07-29T19:33:58.443Z,101101.53
2022-07-29T19:36:26.800Z,101095.53
2022-07-29T19:38:53.971Z,101096.34
2022-07-29T19:41:24.662Z,101096.75
2022-07-29T19:43:53.182Z,101099.53
2022-07-29T19:46:24.429Z,101100.75
2022-07-29T19:48:53.267Z,101107.53
2022-07-29T19:51:21.160Z,101113.50
2022-07-29T19:53:48.692Z,101110.34
2022-07-29T19:56:16.784Z,101107.56
2022-07-29T19:58:44.861Z,101114.72
2022-07-29T20:01:12.709Z,101111.94
2022-07-29T20:03:40.370Z,101106.34
2022-07-29T20:06:08.678Z,101117.50
2022-07-29T20:08:36.079Z,101109.53
2022-07-29T20:11:03.615Z,101112.31
2022-07-29T20:13:33.247Z,101113.16
2022-07-29T20:16:00.892Z,101105.94
2022-07-29T20:18:28.360Z,101110.34
2022-07-29T20:20:57.316Z,101107.94
2022-07-29T20:23:24.574Z,101122.31
2022-07-29T20:25:51.638Z,101119.91
2022-07-29T20:28:18.825Z,101121.50
2022-07-29T20:30:45.909Z,101118.69
2022-07-29T20:33:14.851Z,101117.47
2022-07-29T20:35:41.916Z,101111.09
2022-07-29T20:38:08.978Z,101105.13
2022-07-29T20:40:38.814Z,101111.09
2022-07-29T20:43:06.105Z,101107.94
2022-07-29T20:45:34.506Z,101106.72
2022-07-29T20:48:01.594Z,101106.75
2022-07-29T20:50:29.028Z,101102.34
2022-07-29T20:52:56.361Z,101099.16
2022-07-29T20:55:23.694Z,101103.97
2022-07-29T20:57:51.719Z,101099.53
2022-07-29T21:00:21.654Z,101093.16
2022-07-29T21:02:48.940Z,101106.75
2022-07-29T21:05:16.118Z,101100.34
2022-07-29T21:07:43.258Z,101105.13
2022-07-29T21:10:10.646Z,101098.34
2022-07-29T21:12:38.129Z,101101.53
2022-07-29T21:15:08.746Z,101105.13
2022-07-29T21:17:36.353Z,101105.50
2022-07-29T21:20:06.871Z,101110.31
2022-07-29T21:22:34.390Z,101101.53
2022-07-29T21:25:01.783Z,101105.13
2022-07-29T21:27:47.537Z,101105.53
2022-07-29T21:30:14.648Z,101105.94
2022-07-29T21:32:41.968Z,101106.38
2022-07-29T21:35:19.122Z,101108.75
2022-07-29T21:37:56.826Z,101114.75
2022-07-29T21:40:23.909Z,101108.38
2022-07-29T21:42:51.129Z,101107.16
2022-07-29T21:45:18.161Z,101103.59
2022-07-29T21:47:45.281Z,101103.97
2022-07-29T21:50:12.434Z,101103.16
2022-07-29T21:52:39.647Z,101105.94
2022-07-29T21:55:07.726Z,101105.94
2022-07-29T21:57:37.960Z,101104.78
2022-07-29T22:00:08.478Z,101108.72
2022-07-29T22:02:39.717Z,101103.13
2022-07-29T22:05:07.004Z,101105.13
2022-07-29T22:07:55.696Z,101100.34
2022-07-29T22:10:21.476Z,101106.69
2022-07-29T22:12:52.409Z,101105.50
2022-07-29T22:15:20.036Z,101102.34
2022-07-29T22:17:47.952Z,101100.34
2022-07-29T22:20:15.373Z,101097.13
2022-07-29T22:22:42.602Z,101090.34
2022-07-29T22:25:10.785Z,101103.91
2022-07-29T22:27:38.538Z,101095.53
2022-07-29T22:30:07.059Z,101096.75
2022-07-29T22:32:34.781Z,101097.56
2022-07-29T22:35:01.912Z,101095.56
2022-07-29T22:37:29.233Z,101091.97
2022-07-29T22:39:56.545Z,101091.19
2022-07-29T22:42:23.677Z,101097.56
2022-07-29T22:44:50.870Z,101095.56
2022-07-29T22:47:18.089Z,101096.38
2022-07-29T22:50:06.062Z,101093.19
2022-07-29T22:52:33.143Z,101095.56
2022-07-29T22:55:00.300Z,101085.63
2022-07-29T22:57:28.613Z,101086.44
2022-07-29T22:59:55.838Z,101085.63
2022-07-29T23:02:23.049Z,101081.63
2022-07-29T23:04:50.120Z,101074.06
2022-07-29T23:07:17.791Z,101066.13
2022-07-29T23:09:44.940Z,101068.91
2022-07-29T23:12:12.098Z,101057.38
2022-07-29T23:14:39.313Z,101056.16
2022-07-29T23:17:06.495Z,101056.16
2022-07-29T23:19:33.720Z,101054.56
2022-07-29T23:22:00.812Z,101051.78
2022-07-29T23:24:28.085Z,101045.81
2022-07-29T23:26:55.280Z,101048.97
2022-07-29T23:29:22.519Z,101044.22
2022-07-29T23:31:49.609Z,101041.81
2022-07-29T23:34:16.779Z,101039.44
2022-07-29T23:36:43.936Z,101043.03
2022-07-29T23:39:12.439Z,101030.66
2022-07-29T23:41:39.697Z,101032.25
2022-07-29T23:44:07.025Z,101031.84
2022-07-29T23:46:34.209Z,101028.69
2022-07-29T23:49:01.513Z,101028.66
2022-07-29T23:51:29.380Z,101024.31
2022-07-29T23:53:56.801Z,101029.09
2022-07-29T23:56:24.467Z,101021.91
2022-07-29T23:58:52.396Z,101013.53
